Time,TemperatureF,DewpointF,PressureIn,WindDirection,WindDirectionDegrees,WindSpeedMPH,WindSpeedGustMPH,Humidity,HourlyPrecipIn,Conditions,Clouds,dailyrainin,SoftwareType,DateUTC
2013-10-26 01:14:00,34.5,33.2,30.13,East,98,0.0,0.0,95,0.00,,,0.01,Wunderground v.1.15,2013-10-26 07:14:00,
2013-10-26 01:19:00,34.4,33.1,30.14,East,98,0.0,0.0,95,0.00,,,0.01,Wunderground v.1.15,2013-10-26 07:19:00,
2013-10-26 01:24:00,34.3,33.0,30.14,East,98,0.0,0.0,95,0.00,,,0.01,Wunderground v.1.15,2013-10-26 07:24:00,
2013-10-26 01:29:00,34.3,33.0,30.14,East,98,0.0,0.0,95,0.00,,,0.01,Wunderground v.1.15,2013-10-26 07:29:00,
2013-10-26 01:39:00,34.3,33.0,30.14,East,98,0.0,0.0,95,0.00,,,0.01,Wunderground v.1.15,2013-10-26 07:39:00,
2013-10-26 01:44:00,34.3,33.0,30.14,East,98,0.0,0.0,95,0.00,,,0.01,Wunderground v.1.15,2013-10-26 07:44:00,
2013-10-26 01:49:00,34.3,33.0,30.14,East,98,0.0,0.0,95,0.00,,,0.01,Wunderground v.1.15,2013-10-26 07:49:00,
2013-10-26 01:59:00,34.3,33.0,30.14,East,98,0.0,0.0,95,0.00,,,0.01,Wunderground v.1.15,2013-10-26 07:59:00,
2013-10-26 02:09:00,34.1,32.8,30.14,East,98,0.0,0.0,95,0.00,,,0.01,Wunderground v.1.15,2013-10-26 08:09:00,
2013-10-26 02:14:00,34.0,32.7,30.15,East,98,0.0,0.0,95,0.00,,,0.01,Wunderground v.1.15,2013-10-26 08:14:00,
2013-10-26 02:19:00,33.9,32.6,30.15,East,98,0.0,0.0,95,0.00,,,0.01,Wunderground v.1.15,2013-10-26 08:19:00,
2013-10-26 02:29:00,33.9,32.6,30.15,East,98,0.0,0.0,95,0.00,,,0.01,Wunderground v.1.15,2013-10-26 08:29:00,
2013-10-26 02:34:00,34.0,32.7,30.15,East,98,0.0,0.0,95,0.00,,,0.01,Wunderground v.1.15,2013-10-26 08:34:00,
2013-10-26 02:39:00,33.9,32.6,30.15,East,98,0.0,0.0,95,0.00,,,0.01,Wunderground v.1.15,2013-10-26 08:39:00,
2013-10-26 02:44:00,33.9,32.6,30.15,East,98,0.0,0.0,95,0.00,,,0.01,Wunderground v.1.15,2013-10-26 08:44:00,
2013-10-26 02:49:00,33.9,32.6,30.15,East,98,0.0,0.0,95,0.00,,,0.01,Wunderground v.1.15,2013-10-26 08:49:00,
2013-10-26 02:59:00,33.8,32.5,30.15,East,98,0.0,0.0,95,0.00,,,0.02,Wunderground v.1.15,2013-10-26 08:59:00,
2013-10-26 03:09:00,33.7,32.4,30.16,East,98,0.0,0.0,95,0.00,,,0.02,Wunderground v.1.15,2013-10-26 09:09:00,
2013-10-26 03:14:00,33.7,32.4,30.16,East,98,0.0,0.0,95,0.00,,,0.02,Wunderground v.1.15,2013-10-26 09:14:00,
2013-10-26 03:19:00,33.7,32.4,30.16,East,98,0.0,0.0,95,0.00,,,0.02,Wunderground v.1.15,2013-10-26 09:19:00,
2013-10-26 03:24:00,33.7,32.4,30.16,East,98,0.0,0.0,95,0.00,,,0.02,Wunderground v.1.15,2013-10-26 09:24:00,
2013-10-26 03:34:00,33.7,32.4,30.16,East,98,0.0,0.0,95,0.00,,,0.02,Wunderground v.1.15,2013-10-26 09:34:00,
2013-10-26 03:39:00,33.7,32.4,30.16,East,98,0.0,0.0,95,0.00,,,0.02,Wunderground v.1.15,2013-10-26 09:39:00,
2013-10-26 03:44:00,33.7,32.4,30.16,East,98,0.0,0.0,95,0.00,,,0.02,Wunderground v.1.15,2013-10-26 09:44:00,
2013-10-26 03:49:00,33.5,32.2,30.16,East,98,0.0,0.0,95,0.00,,,0.02,Wunderground v.1.15,2013-10-26 09:49:00,
2013-10-26 03:54:00,33.5,32.2,30.16,East,98,0.0,0.0,95,0.00,,,0.02,Wunderground v.1.15,2013-10-26 09:54:00,
2013-10-26 03:59:00,33.3,32.0,30.16,East,98,0.0,0.0,95,0.00,,,0.02,Wunderground v.1.15,2013-10-26 09:59:00,
2013-10-26 04:09:00,33.3,32.0,30.16,East,98,0.0,0.0,95,0.00,,,0.02,Wunderground v.1.15,2013-10-26 10:09:00,
2013-10-26 04:14:00,33.2,31.9,30.17,East,98,0.0,0.0,95,0.00,,,0.02,Wunderground v.1.15,2013-10-26 10:14:00,
2013-10-26 04:19:00,33.1,31.8,30.17,East,98,0.0,0.0,95,0.00,,,0.02,Wunderground v.1.15,2013-10-26 10:19:00,
2013-10-26 04:24:00,33.1,32.1,30.17,East,98,0.0,0.0,96,0.00,,,0.02,Wunderground v.1.15,2013-10-26 10:24:00,
2013-10-26 04:29:00,33.1,32.1,30.17,East,98,0.0,0.0,96,0.00,,,0.02,Wunderground v.1.15,2013-10-26 10:29:00,
2013-10-26 04:34:00,33.0,32.0,30.17,East,98,0.0,0.0,96,0.00,,,0.02,Wunderground v.1.15,2013-10-26 10:34:00,
2013-10-26 04:44:00,33.0,32.0,30.18,East,98,0.0,0.0,96,0.00,,,0.02,Wunderground v.1.15,2013-10-26 10:44:00,
2013-10-26 04:49:00,33.1,32.1,30.18,East,98,0.0,0.0,96,0.00,,,0.02,Wunderground v.1.15,2013-10-26 10:49:00,
2013-10-26 04:54:00,33.0,32.0,30.18,East,98,0.0,0.0,96,0.00,,,0.02,Wunderground v.1.15,2013-10-26 10:54:00,
2013-10-26 04:59:00,33.0,32.0,30.18,East,98,0.0,0.0,96,0.00,,,0.02,Wunderground v.1.15,2013-10-26 10:59:00,
2013-10-26 05:09:00,33.1,32.1,30.19,East,98,0.0,0.0,96,0.00,,,0.02,Wunderground v.1.15,2013-10-26 11:09:00,
2013-10-26 05:19:00,33.2,32.2,30.19,East,98,0.0,0.0,96,0.00,,,0.02,Wunderground v.1.15,2013-10-26 11:19:00,
2013-10-26 05:24:00,33.0,32.0,30.19,East,98,0.0,0.0,96,0.00,,,0.02,Wunderground v.1.15,2013-10-26 11:24:00,
2013-10-26 05:29:00,33.2,32.2,30.19,East,98,0.0,0.0,96,0.00,,,0.02,Wunderground v.1.15,2013-10-26 11:29:00,
2013-10-26 05:34:00,33.2,32.2,30.19,East,98,0.0,0.0,96,0.00,,,0.02,Wunderground v.1.15,2013-10-26 11:34:00,
2013-10-26 05:39:00,33.2,32.2,30.19,East,98,0.0,0.0,96,0.00,,,0.02,Wunderground v.1.15,2013-10-26 11:39:00,
2013-10-26 05:44:00,33.2,32.2,30.19,ESE,113,0.0,0.0,96,0.00,,,0.02,Wunderground v.1.15,2013-10-26 11:44:00,
2013-10-26 05:54:00,33.1,32.1,30.20,East,98,0.0,1.0,96,0.00,,,0.02,Wunderground v.1.15,2013-10-26 11:54:00,
2013-10-26 05:59:00,33.0,32.0,30.20,East,98,0.0,0.0,96,0.00,,,0.02,Wunderground v.1.15,2013-10-26 11:59:00,
2013-10-26 06:09:00,33.2,32.2,30.20,East,98,0.0,0.0,96,0.00,,,0.02,Wunderground v.1.15,2013-10-26 12:09:00,
2013-10-26 06:14:00,33.1,32.1,30.20,East,98,0.0,0.0,96,0.00,,,0.02,Wunderground v.1.15,2013-10-26 12:14:00,
2013-10-26 06:19:00,33.2,32.2,30.20,East,98,0.0,0.0,96,0.00,,,0.02,Wunderground v.1.15,2013-10-26 12:19:00,
2013-10-26 06:29:00,33.1,32.1,30.20,East,98,0.0,0.0,96,0.00,,,0.02,Wunderground v.1.15,2013-10-26 12:29:00,
2013-10-26 06:39:00,33.2,32.2,30.21,East,95,2.0,5.0,96,0.00,,,0.02,Wunderground v.1.15,2013-10-26 12:39:00,
2013-10-26 06:44:00,33.4,32.4,30.21,East,94,2.0,5.0,96,0.00,,,0.02,Wunderground v.1.15,2013-10-26 12:44:00,
2013-10-26 06:49:00,33.4,32.4,30.21,ESE,102,4.0,4.0,96,0.00,,,0.02,Wunderground v.1.15,2013-10-26 12:49:00,
2013-10-26 06:54:00,33.4,32.4,30.21,East,88,4.0,4.0,96,0.00,,,0.02,Wunderground v.1.15,2013-10-26 12:54:00,
2013-10-26 06:59:00,33.3,32.3,30.21,East,88,2.0,2.0,96,0.00,,,0.02,Wunderground v.1.15,2013-10-26 12:59:00,
2013-10-26 07:09:00,33.5,32.5,30.22,East,93,2.0,2.0,96,0.00,,,0.02,Wunderground v.1.15,2013-10-26 13:09:00,
2013-10-26 07:14:00,33.4,32.4,30.22,East,93,2.0,2.0,96,0.00,,,0.02,Wunderground v.1.15,2013-10-26 13:14:00,
2013-10-26 07:19:00,33.4,32.4,30.22,East,93,0.0,0.0,96,0.00,,,0.02,Wunderground v.1.15,2013-10-26 13:19:00,
2013-10-26 07:24:00,33.3,32.3,30.22,East,93,0.0,3.0,96,0.00,,,0.02,Wunderground v.1.15,2013-10-26 13:24:00,
2013-10-26 07:29:00,33.3,32.3,30.22,East,93,1.0,1.0,96,0.00,,,0.02,Wunderground v.1.15,2013-10-26 13:29:00,
2013-10-26 07:39:00,33.3,32.3,30.23,East,96,1.0,5.0,96,0.00,,,0.02,Wunderground v.1.15,2013-10-26 13:39:00,
2013-10-26 07:44:00,33.7,32.7,30.23,East,92,3.0,5.0,96,0.00,,,0.02,Wunderground v.1.15,2013-10-26 13:44:00,
2013-10-26 07:49:00,33.9,32.9,30.23,East,88,4.0,4.0,96,0.00,,,0.02,Wunderground v.1.15,2013-10-26 13:49:00,
2013-10-26 07:54:00,34.1,33.1,30.23,East,92,4.0,4.0,96,0.00,,,0.02,Wunderground v.1.15,2013-10-26 13:54:00,
2013-10-26 07:59:00,34.2,33.2,30.23,East,100,4.0,7.0,96,0.00,,,0.02,Wunderground v.1.15,2013-10-26 13:59:00,
2013-10-26 08:09:00,34.3,33.0,30.24,East,92,4.0,5.0,95,0.00,,,0.02,Wunderground v.1.15,2013-10-26 14:09:00,
2013-10-26 08:19:00,34.5,33.2,30.24,East,82,4.0,4.0,95,0.00,,,0.02,Wunderground v.1.15,2013-10-26 14:19:00,
2013-10-26 08:24:00,34.3,33.0,30.24,East,82,2.0,4.0,95,0.00,,,0.02,Wunderground v.1.15,2013-10-26 14:24:00,
2013-10-26 08:29:00,34.3,33.0,30.24,East,82,1.0,3.0,95,0.00,,,0.02,Wunderground v.1.15,2013-10-26 14:29:00,
2013-10-26 08:34:00,34.3,33.0,30.25,East,89,2.0,5.0,95,0.00,,,0.02,Wunderground v.1.15,2013-10-26 14:34:00,
2013-10-26 08:39:00,34.6,33.3,30.25,East,82,4.0,5.0,95,0.00,,,0.02,Wunderground v.1.15,2013-10-26 14:39:00,
2013-10-26 08:49:00,34.9,33.6,30.25,East,96,3.0,6.0,95,0.00,,,0.02,Wunderground v.1.15,2013-10-26 14:49:00,
2013-10-26 08:54:00,35.2,33.9,30.25,East,92,4.0,6.0,95,0.00,,,0.03,Wunderground v.1.15,2013-10-26 14:54:00,
2013-10-26 08:59:00,35.6,34.3,30.26,East,82,3.0,3.0,95,0.00,,,0.03,Wunderground v.1.15,2013-10-26 14:59:00,
2013-10-26 09:09:00,36.2,34.6,30.26,East,82,2.0,3.0,94,0.11,,,0.05,Wunderground v.1.15,2013-10-26 15:09:00,
2013-10-26 09:14:00,36.5,35.2,30.26,East,80,2.0,3.0,95,0.09,,,0.06,Wunderground v.1.15,2013-10-26 15:14:00,
2013-10-26 09:19:00,36.9,35.3,30.26,East,100,2.0,3.0,94,0.09,,,0.06,Wunderground v.1.15,2013-10-26 15:19:00,
2013-10-26 09:29:00,37.8,36.0,30.26,ENE,78,1.0,2.0,93,0.08,,,0.08,Wunderground v.1.15,2013-10-26 15:29:00,
2013-10-26 09:34:00,38.3,36.2,30.26,ENE,72,1.0,3.0,92,0.09,,,0.08,Wunderground v.1.15,2013-10-26 15:34:00,
2013-10-26 09:39:00,38.8,36.7,30.26,East,94,2.0,2.0,92,0.09,,,0.09,Wunderground v.1.15,2013-10-26 15:39:00,
2013-10-26 09:44:00,39.0,36.6,30.26,East,83,2.0,6.0,91,0.08,,,0.10,Wunderground v.1.15,2013-10-26 15:44:00,
2013-10-26 09:49:00,39.5,37.4,30.26,East,99,2.0,2.0,92,0.08,,,0.10,Wunderground v.1.15,2013-10-26 15:49:00,
2013-10-26 09:59:00,40.3,37.9,30.26,East,80,1.0,1.0,91,0.06,,,0.11,Wunderground v.1.15,2013-10-26 15:59:00,
2013-10-26 10:09:00,41.7,39.0,30.26,East,80,0.0,0.0,90,0.06,,,0.12,Wunderground v.1.15,2013-10-26 16:09:00,
2013-10-26 10:19:00,42.1,39.7,30.26,East,80,0.0,0.0,91,0.05,,,0.13,Wunderground v.1.15,2013-10-26 16:19:00,
2013-10-26 10:24:00,42.3,39.3,30.26,East,80,0.0,0.0,89,0.05,,,0.14,Wunderground v.1.15,2013-10-26 16:24:00,
2013-10-26 10:29:00,43.5,39.9,30.26,East,80,0.0,0.0,87,0.05,,,0.14,Wunderground v.1.15,2013-10-26 16:29:00,
2013-10-26 10:34:00,43.7,39.8,30.26,East,80,0.0,0.0,86,0.05,,,0.14,Wunderground v.1.15,2013-10-26 16:34:00,
2013-10-26 10:39:00,44.0,40.4,30.26,East,80,0.0,0.0,87,0.04,,,0.15,Wunderground v.1.15,2013-10-26 16:39:00,
2013-10-26 10:44:00,44.3,40.4,30.26,East,80,0.0,0.0,86,0.04,,,0.15,Wunderground v.1.15,2013-10-26 16:44:00,
2013-10-26 10:49:00,44.8,40.0,30.25,East,80,0.0,0.0,83,0.04,,,0.15,Wunderground v.1.15,2013-10-26 16:49:00,
2013-10-26 10:54:00,44.7,38.6,30.25,East,80,0.0,0.0,79,0.04,,,0.15,Wunderground v.1.15,2013-10-26 16:54:00,
2013-10-26 10:59:00,45.0,40.1,30.25,East,80,0.0,0.0,83,0.00,,,0.16,Wunderground v.1.15,2013-10-26 16:59:00,
2013-10-26 11:09:00,46.5,41.6,30.25,East,80,0.0,0.0,83,0.00,,,0.16,Wunderground v.1.15,2013-10-26 17:09:00,
2013-10-26 11:14:00,47.4,40.2,30.25,East,80,0.0,0.0,76,0.00,,,0.16,Wunderground v.1.15,2013-10-26 17:14:00,
2013-10-26 11:24:00,47.4,39.2,30.25,East,80,0.0,0.0,73,0.00,,,0.17,Wunderground v.1.15,2013-10-26 17:24:00,
2013-10-26 11:29:00,48.5,39.9,30.25,East,80,0.0,0.0,72,0.00,,,0.17,Wunderground v.1.15,2013-10-26 17:29:00,
2013-10-26 11:34:00,48.9,36.0,30.25,East,80,0.0,0.0,61,0.00,,,0.17,Wunderground v.1.15,2013-10-26 17:34:00,
2013-10-26 11:39:00,48.5,35.7,30.25,East,80,0.0,0.0,61,0.00,,,0.17,Wunderground v.1.15,2013-10-26 17:39:00,
2013-10-26 11:49:00,49.7,37.2,30.25,East,80,0.0,0.0,62,0.00,,,0.17,Wunderground v.1.15,2013-10-26 17:49:00,
2013-10-26 11:54:00,50.8,35.7,30.25,SW,222,0.0,0.0,56,0.00,,,0.17,Wunderground v.1.15,2013-10-26 17:54:00,
2013-10-26 11:59:00,50.3,34.3,30.25,West,269,0.0,5.0,54,0.00,,,0.17,Wunderground v.1.15,2013-10-26 17:59:00,
2013-10-26 12:09:00,50.6,30.0,30.25,NW,306,0.0,0.0,45,0.00,,,0.17,Wunderground v.1.15,2013-10-26 18:09:00,
2013-10-26 12:19:00,51.0,36.3,30.25,West,261,0.0,0.0,57,0.00,,,0.17,Wunderground v.1.15,2013-10-26 18:19:00,
2013-10-26 12:29:00,51.3,32.3,30.25,West,280,0.0,0.0,48,0.00,,,0.17,Wunderground v.1.15,2013-10-26 18:29:00,
2013-10-26 12:34:00,51.6,33.0,30.25,West,280,0.0,0.0,49,0.00,,,0.17,Wunderground v.1.15,2013-10-26 18:34:00,
2013-10-26 12:39:00,51.5,33.0,30.25,South,172,0.0,0.0,49,0.00,,,0.17,Wunderground v.1.15,2013-10-26 18:39:00,
2013-10-26 12:44:00,51.2,33.7,30.25,South,177,0.0,0.0,51,0.00,,,0.17,Wunderground v.1.15,2013-10-26 18:44:00,
2013-10-26 12:49:00,50.6,37.2,30.25,South,177,0.0,0.0,60,0.00,,,0.17,Wunderground v.1.15,2013-10-26 18:49:00,
2013-10-26 12:59:00,52.1,30.8,30.24,NW,324,0.0,0.0,44,0.00,,,0.17,Wunderground v.1.15,2013-10-26 18:59:00,
2013-10-26 13:09:00,52.6,30.7,30.24,WNW,292,0.0,0.0,43,0.00,,,0.17,Wunderground v.1.15,2013-10-26 19:09:00,
2013-10-26 13:14:00,51.7,36.9,30.23,WNW,292,0.0,0.0,57,0.00,,,0.17,Wunderground v.1.15,2013-10-26 19:14:00,
2013-10-26 13:19:00,50.7,38.1,30.23,WNW,292,0.0,0.0,62,0.00,,,0.17,Wunderground v.1.15,2013-10-26 19:19:00,
2013-10-26 13:24:00,49.9,39.4,30.23,WNW,292,0.0,0.0,67,0.00,,,0.17,Wunderground v.1.15,2013-10-26 19:24:00,
2013-10-26 13:34:00,51.3,32.8,30.22,WNW,292,0.0,0.0,49,0.00,,,0.17,Wunderground v.1.15,2013-10-26 19:34:00,
2013-10-26 13:39:00,51.5,33.5,30.22,WNW,292,0.0,0.0,50,0.00,,,0.17,Wunderground v.1.15,2013-10-26 19:39:00,
2013-10-26 13:44:00,51.3,33.3,30.22,NW,318,0.0,0.0,50,0.00,,,0.17,Wunderground v.1.15,2013-10-26 19:44:00,
2013-10-26 13:49:00,51.8,32.7,30.22,NW,318,0.0,0.0,48,0.00,,,0.17,Wunderground v.1.15,2013-10-26 19:49:00,
2013-10-26 13:54:00,52.5,33.4,30.22,NW,318,0.0,0.0,48,0.00,,,0.17,Wunderground v.1.15,2013-10-26 19:54:00,
2013-10-26 13:59:00,52.7,30.2,30.22,NW,320,0.0,0.0,42,0.00,,,0.17,Wunderground v.1.15,2013-10-26 19:59:00,
2013-10-26 14:09:00,53.3,28.3,30.21,West,267,0.0,0.0,38,0.00,,,0.17,Wunderground v.1.15,2013-10-26 20:09:00,
2013-10-26 14:14:00,53.1,26.8,30.21,West,267,0.0,0.0,36,0.00,,,0.17,Wunderground v.1.15,2013-10-26 20:14:00,
2013-10-26 14:19:00,53.1,31.2,30.21,West,267,0.0,0.0,43,0.00,,,0.17,Wunderground v.1.15,2013-10-26 20:19:00,
2013-10-26 14:29:00,52.7,28.4,30.21,NW,316,0.0,0.0,39,0.00,,,0.17,Wunderground v.1.15,2013-10-26 20:29:00,
2013-10-26 14:34:00,51.9,36.2,30.21,WNW,292,0.0,0.0,55,0.00,,,0.17,Wunderground v.1.15,2013-10-26 20:34:00,
2013-10-26 14:44:00,51.6,36.4,30.21,West,268,1.0,3.0,56,0.00,,,0.17,Wunderground v.1.15,2013-10-26 20:44:00,
2013-10-26 14:49:00,51.7,36.0,30.21,WNW,293,1.0,1.0,55,0.00,,,0.17,Wunderground v.1.15,2013-10-26 20:49:00,
2013-10-26 14:54:00,51.7,35.6,30.21,WNW,293,0.0,1.0,54,0.00,,,0.17,Wunderground v.1.15,2013-10-26 20:54:00,
2013-10-26 14:59:00,51.4,36.2,30.21,WNW,292,0.0,0.0,56,0.00,,,0.17,Wunderground v.1.15,2013-10-26 20:59:00,
2013-10-26 15:09:00,52.3,36.1,30.20,NW,304,1.0,1.0,54,0.00,,,0.17,Wunderground v.1.15,2013-10-26 21:09:00,
2013-10-26 15:19:00,52.3,32.1,30.20,NW,304,0.0,0.0,46,0.00,,,0.17,Wunderground v.1.15,2013-10-26 21:19:00,
2013-10-26 15:24:00,52.8,32.0,30.20,NW,304,0.0,0.0,45,0.00,,,0.17,Wunderground v.1.15,2013-10-26 21:24:00,
2013-10-26 15:29:00,52.9,33.2,30.20,NW,304,0.0,0.0,47,0.00,,,0.17,Wunderground v.1.15,2013-10-26 21:29:00,
2013-10-26 15:39:00,53.6,33.8,30.20,WNW,302,0.0,0.0,47,0.00,,,0.17,Wunderground v.1.15,2013-10-26 21:39:00,
2013-10-26 15:44:00,53.4,33.1,30.20,NNW,335,0.0,0.0,46,0.00,,,0.17,Wunderground v.1.15,2013-10-26 21:44:00,
2013-10-26 15:54:00,53.0,33.8,30.20,NNW,327,0.0,0.0,48,0.00,,,0.17,Wunderground v.1.15,2013-10-26 21:54:00,
2013-10-26 15:59:00,52.3,34.2,30.20,NNW,336,1.0,2.0,50,0.00,,,0.17,Wunderground v.1.15,2013-10-26 21:59:00,
2013-10-26 16:09:00,50.6,36.4,30.21,NNW,327,1.0,1.0,58,0.00,,,0.17,Wunderground v.1.15,2013-10-26 22:09:00,
2013-10-26 16:14:00,49.3,37.2,30.21,NNW,327,1.0,2.0,63,0.00,,,0.17,Wunderground v.1.15,2013-10-26 22:14:00,
2013-10-26 16:19:00,47.8,37.4,30.21,NNW,327,1.0,1.0,67,0.00,,,0.17,Wunderground v.1.15,2013-10-26 22:19:00,
2013-10-26 16:29:00,46.2,36.6,30.21,WNW,298,0.0,0.0,69,0.00,,,0.17,Wunderground v.1.15,2013-10-26 22:29:00,
2013-10-26 16:39:00,45.3,38.5,30.22,WNW,298,0.0,0.0,77,0.00,,,0.17,Wunderground v.1.15,2013-10-26 22:39:00,
2013-10-26 16:44:00,44.5,38.7,30.22,WNW,298,0.0,0.0,80,0.00,,,0.17,Wunderground v.1.15,2013-10-26 22:44:00,
2013-10-26 16:49:00,44.2,38.4,30.22,WNW,298,0.0,0.0,80,0.00,,,0.17,Wunderground v.1.15,2013-10-26 22:49:00,
2013-10-26 16:54:00,43.8,38.0,30.22,WNW,298,0.0,0.0,80,0.00,,,0.17,Wunderground v.1.15,2013-10-26 22:54:00,
2013-10-26 16:59:00,43.4,38.3,30.23,WNW,298,0.0,0.0,82,0.00,,,0.17,Wunderground v.1.15,2013-10-26 22:59:00,
2013-10-26 17:09:00,42.8,38.0,30.23,WNW,298,0.0,0.0,83,0.00,,,0.17,Wunderground v.1.15,2013-10-26 23:09:00,
2013-10-26 17:14:00,42.7,37.6,30.23,WNW,298,0.0,0.0,82,0.00,,,0.17,Wunderground v.1.15,2013-10-26 23:14:00,
2013-10-26 17:19:00,42.5,37.7,30.23,WNW,298,0.0,0.0,83,0.00,,,0.17,Wunderground v.1.15,2013-10-26 23:19:00,
2013-10-26 17:24:00,42.5,37.7,30.23,WNW,298,0.0,0.0,83,0.00,,,0.17,Wunderground v.1.15,2013-10-26 23:24:00,
2013-10-26 17:29:00,42.6,37.8,30.23,WNW,298,0.0,0.0,83,0.00,,,0.17,Wunderground v.1.15,2013-10-26 23:29:00,
2013-10-26 17:39:00,42.7,37.9,30.23,WNW,298,0.0,0.0,83,0.00,,,0.17,Wunderground v.1.15,2013-10-26 23:39:00,
2013-10-26 17:44:00,42.7,37.9,30.23,WNW,298,0.0,0.0,83,0.00,,,0.17,Wunderground v.1.15,2013-10-26 23:44:00,
2013-10-26 17:49:00,42.4,37.9,30.23,WNW,298,0.0,0.0,84,0.00,,,0.17,Wunderground v.1.15,2013-10-26 23:49:00,
2013-10-26 17:54:00,42.4,37.9,30.23,WNW,298,0.0,0.0,84,0.00,,,0.17,Wunderground v.1.15,2013-10-26 23:54:00,
2013-10-26 17:59:00,42.4,37.6,30.24,WNW,298,0.0,0.0,83,0.00,,,0.17,Wunderground v.1.15,2013-10-26 23:59:00,
2013-10-26 18:09:00,42.2,36.5,30.24,East,94,0.0,3.0,80,0.00,,,0.17,Wunderground v.1.15,2013-10-27 00:09:00,
2013-10-26 18:19:00,42.1,36.4,30.24,ESE,103,0.0,0.0,80,0.00,,,0.17,Wunderground v.1.15,2013-10-27 00:19:00,
2013-10-26 18:24:00,41.9,35.9,30.24,ESE,103,0.0,0.0,79,0.00,,,0.17,Wunderground v.1.15,2013-10-27 00:24:00,
2013-10-26 18:29:00,41.5,36.1,30.25,ESE,103,0.0,0.0,81,0.00,,,0.17,Wunderground v.1.15,2013-10-27 00:29:00,
2013-10-26 18:39:00,41.0,35.3,30.25,ESE,103,0.0,0.0,80,0.00,,,0.17,Wunderground v.1.15,2013-10-27 00:39:00,
2013-10-26 18:44:00,40.7,35.3,30.25,ESE,103,0.0,0.0,81,0.00,,,0.17,Wunderground v.1.15,2013-10-27 00:44:00,
2013-10-26 18:54:00,39.8,35.4,30.26,ESE,103,0.0,0.0,84,0.00,,,0.17,Wunderground v.1.15,2013-10-27 00:54:00,
2013-10-26 18:59:00,39.6,35.5,30.26,ESE,103,0.0,0.0,85,0.00,,,0.17,Wunderground v.1.15,2013-10-27 00:59:00,
2013-10-26 19:09:00,39.3,34.9,30.26,ESE,103,0.0,0.0,84,0.00,,,0.17,Wunderground v.1.15,2013-10-27 01:09:00,
2013-10-26 19:14:00,39.5,33.8,30.27,East,92,0.0,6.0,80,0.00,,,0.17,Wunderground v.1.15,2013-10-27 01:14:00,
2013-10-26 19:19:00,39.8,33.2,30.27,East,93,1.0,1.0,77,0.00,,,0.17,Wunderground v.1.15,2013-10-27 01:19:00,
2013-10-26 19:29:00,39.6,33.0,30.27,ESE,102,1.0,1.0,77,0.00,,,0.17,Wunderground v.1.15,2013-10-27 01:29:00,
2013-10-26 19:34:00,39.0,33.0,30.27,ESE,102,1.0,1.0,79,0.00,,,0.17,Wunderground v.1.15,2013-10-27 01:34:00,
2013-10-26 19:39:00,38.4,33.4,30.27,ESE,102,0.0,0.0,82,0.00,,,0.17,Wunderground v.1.15,2013-10-27 01:39:00,
2013-10-26 19:49:00,37.3,32.9,30.27,ESE,102,0.0,0.0,84,0.00,,,0.17,Wunderground v.1.15,2013-10-27 01:49:00,
2013-10-26 19:54:00,36.8,33.0,30.27,ESE,102,0.0,0.0,86,0.00,,,0.17,Wunderground v.1.15,2013-10-27 01:54:00,
2013-10-26 19:59:00,36.5,32.7,30.27,ESE,102,0.0,0.0,86,0.00,,,0.17,Wunderground v.1.15,2013-10-27 01:59:00,
2013-10-26 20:09:00,36.1,32.3,30.27,ESE,102,0.0,0.0,86,0.00,,,0.17,Wunderground v.1.15,2013-10-27 02:09:00,
2013-10-26 20:14:00,35.9,32.1,30.27,ESE,102,0.0,0.0,86,0.00,,,0.17,Wunderground v.1.15,2013-10-27 02:14:00,
2013-10-26 20:19:00,35.5,32.0,30.28,ESE,102,0.0,0.0,87,0.00,,,0.17,Wunderground v.1.15,2013-10-27 02:19:00,
2013-10-26 20:24:00,35.3,31.8,30.28,ESE,102,0.0,2.0,87,0.00,,,0.17,Wunderground v.1.15,2013-10-27 02:24:00,
2013-10-26 20:29:00,35.3,31.5,30.28,ESE,102,1.0,1.0,86,0.00,,,0.17,Wunderground v.1.15,2013-10-27 02:29:00,
2013-10-26 20:34:00,35.3,31.5,30.28,ESE,102,0.0,1.0,86,0.00,,,0.17,Wunderground v.1.15,2013-10-27 02:34:00,
2013-10-26 20:39:00,35.1,31.3,30.29,ESE,102,0.0,0.0,86,0.00,,,0.17,Wunderground v.1.15,2013-10-27 02:39:00,
2013-10-26 20:44:00,34.8,31.3,30.29,ESE,102,0.0,0.0,87,0.00,,,0.17,Wunderground v.1.15,2013-10-27 02:44:00,
2013-10-26 20:54:00,34.7,30.9,30.29,ESE,102,0.0,0.0,86,0.00,,,0.17,Wunderground v.1.15,2013-10-27 02:54:00,
2013-10-26 20:59:00,34.8,30.8,30.29,East,99,1.0,2.0,85,0.00,,,0.17,Wunderground v.1.15,2013-10-27 02:59:00,
2013-10-26 21:09:00,34.9,30.3,30.29,East,98,3.0,3.0,83,0.00,,,0.17,Wunderground v.1.15,2013-10-27 03:09:00,
2013-10-26 21:14:00,34.8,30.2,30.30,East,98,2.0,3.0,83,0.00,,,0.17,Wunderground v.1.15,2013-10-27 03:14:00,
2013-10-26 21:19:00,34.7,30.1,30.30,ESE,102,3.0,5.0,83,0.00,,,0.17,Wunderground v.1.15,2013-10-27 03:19:00,
2013-10-26 21:24:00,34.7,30.1,30.30,East,79,4.0,5.0,83,0.00,,,0.17,Wunderground v.1.15,2013-10-27 03:24:00,
2013-10-26 21:29:00,34.5,29.9,30.30,East,86,3.0,5.0,83,0.00,,,0.17,Wunderground v.1.15,2013-10-27 03:29:00,
2013-10-26 21:39:00,34.0,29.7,30.30,East,86,1.0,1.0,84,0.00,,,0.17,Wunderground v.1.15,2013-10-27 03:39:00,
2013-10-26 21:49:00,33.7,29.7,30.30,East,90,2.0,5.0,85,0.00,,,0.17,Wunderground v.1.15,2013-10-27 03:49:00,
2013-10-26 21:54:00,33.9,29.3,30.30,East,96,3.0,6.0,83,0.00,,,0.17,Wunderground v.1.15,2013-10-27 03:54:00,
2013-10-26 21:59:00,33.9,29.3,30.30,East,99,3.0,3.0,83,0.00,,,0.17,Wunderground v.1.15,2013-10-27 03:59:00,
2013-10-26 22:04:00,33.5,29.2,30.30,East,99,2.0,3.0,84,0.00,,,0.17,Wunderground v.1.15,2013-10-27 04:04:00,
2013-10-26 22:09:00,33.4,29.1,30.30,East,87,2.0,3.0,84,0.00,,,0.17,Wunderground v.1.15,2013-10-27 04:09:00,
2013-10-26 22:14:00,33.5,28.9,30.30,East,94,4.0,4.0,83,0.00,,,0.17,Wunderground v.1.15,2013-10-27 04:14:00,
2013-10-26 22:24:00,33.4,28.8,30.31,East,99,3.0,4.0,83,0.00,,,0.17,Wunderground v.1.15,2013-10-27 04:24:00,
2013-10-26 22:29:00,33.2,28.6,30.30,ESE,103,3.0,5.0,83,0.00,,,0.17,Wunderground v.1.15,2013-10-27 04:29:00,
2013-10-26 22:39:00,33.0,28.4,30.30,ESE,109,4.0,5.0,83,0.00,,,0.17,Wunderground v.1.15,2013-10-27 04:39:00,
2013-10-26 22:44:00,33.0,28.4,30.30,ESE,115,4.0,5.0,83,0.00,,,0.17,Wunderground v.1.15,2013-10-27 04:44:00,
2013-10-26 22:49:00,32.9,28.3,30.30,East,88,3.0,5.0,83,0.00,,,0.17,Wunderground v.1.15,2013-10-27 04:49:00,
2013-10-26 22:54:00,32.7,28.1,30.30,East,96,4.0,5.0,83,0.00,,,0.17,Wunderground v.1.15,2013-10-27 04:54:00,
2013-10-26 22:59:00,32.6,28.0,30.30,East,101,4.0,5.0,83,0.00,,,0.17,Wunderground v.1.15,2013-10-27 04:59:00,
2013-10-26 23:09:00,32.4,28.1,30.29,East,98,3.0,3.0,84,0.00,,,0.17,Wunderground v.1.15,2013-10-27 05:09:00,
2013-10-26 23:14:00,32.1,28.1,30.29,East,98,1.0,3.0,85,0.00,,,0.17,Wunderground v.1.15,2013-10-27 05:14:00,
2013-10-26 23:19:00,31.9,27.9,30.29,East,98,1.0,1.0,85,0.00,,,0.17,Wunderground v.1.15,2013-10-27 05:19:00,
2013-10-26 23:24:00,32.0,28.0,30.29,East,96,2.0,3.0,85,0.00,,,0.17,Wunderground v.1.15,2013-10-27 05:24:00,
2013-10-26 23:34:00,31.8,27.8,30.29,East,96,2.0,3.0,85,0.00,,,0.17,Wunderground v.1.15,2013-10-27 05:34:00,
2013-10-26 23:39:00,31.6,27.6,30.28,East,96,1.0,1.0,85,0.00,,,0.17,Wunderground v.1.15,2013-10-27 05:39:00,
2013-10-26 23:44:00,31.3,27.6,30.28,East,96,0.0,7.0,86,0.00,,,0.17,Wunderground v.1.15,2013-10-27 05:44:00,
2013-10-26 23:49:00,31.1,27.4,30.28,East,92,1.0,6.0,86,0.00,,,0.17,Wunderground v.1.15,2013-10-27 05:49:00,
2013-10-26 23:54:00,31.3,27.6,30.28,East,92,1.0,6.0,86,0.00,,,0.17,Wunderground v.1.15,2013-10-27 05:54:00,
2013-10-26 23:59:00,31.3,27.6,30.28,East,92,1.0,1.0,86,0.00,,,0.17,Wunderground v.1.15,2013-10-27 05:59:00,